createdAt,value
2022-08-17T00:00:43.214Z,8.07
2022-08-17T00:03:38.506Z,6.18
2022-08-17T00:07:21.243Z,7.20
2022-08-17T00:09:48.506Z,6.60
2022-08-17T00:12:43.683Z,6.50
2022-08-17T00:15:08.288Z,8.20
2022-08-17T00:17:38.410Z,7.25
2022-08-17T00:21:23.904Z,6.68
2022-08-17T00:25:07.593Z,5.95
2022-08-17T00:27:36.881Z,7.65
2022-08-17T00:30:10.243Z,8.15
2022-08-17T00:33:52.809Z,9.90
2022-08-17T00:37:35.420Z,7.47
2022-08-17T00:40:05.471Z,7.93
2022-08-17T00:42:33.689Z,7.60
2022-08-17T00:45:01.281Z,7.10
2022-08-17T00:48:44.369Z,6.45
2022-08-17T00:52:27.553Z,7.40
2022-08-17T00:56:10.224Z,7.85
2022-08-17T01:00:01.731Z,6.22
2022-08-17T01:03:45.699Z,7.18
2022-08-17T01:06:13.798Z,5.97
2022-08-17T01:08:42.389Z,6.72
2022-08-17T01:11:10.226Z,6.45
2022-08-17T01:13:43.318Z,6.63
2022-08-17T01:16:32.312Z,11.07
2022-08-17T01:19:09.168Z,6.65
2022-08-17T01:21:48.095Z,6.80
2022-08-17T01:24:17.115Z,6.70
2022-08-17T01:26:46.243Z,6.63
2022-08-17T01:29:14.461Z,7.05
2022-08-17T01:31:53.519Z,7.40
2022-08-17T01:34:22.187Z,8.23
2022-08-17T01:36:51.900Z,7.22
2022-08-17T01:39:45.407Z,7.47
2022-08-17T01:42:39.738Z,9.00
2022-08-17T01:45:17.602Z,6.68
2022-08-17T01:47:45.728Z,8.48
2022-08-17T01:50:32.384Z,6.97
2022-08-17T01:53:10.379Z,7.35
2022-08-17T01:55:47.779Z,7.82
2022-08-17T01:58:15.382Z,7.68
2022-08-17T02:01:00.084Z,6.57
2022-08-17T02:03:30.296Z,9.45
2022-08-17T02:05:58.301Z,7.70
2022-08-17T02:08:39.562Z,7.30
2022-08-17T02:11:19.581Z,7.30
2022-08-17T02:13:57.953Z,6.78
2022-08-17T02:16:37.814Z,6.82
2022-08-17T02:19:15.818Z,6.65
2022-08-17T02:21:49.018Z,6.57
2022-08-17T02:25:00.359Z,8.15
2022-08-17T02:27:22.122Z,6.85
2022-08-17T02:29:49.635Z,8.02
2022-08-17T02:32:28.114Z,7.10
2022-08-17T02:34:58.343Z,7.73
2022-08-17T02:37:28.687Z,9.07
2022-08-17T02:39:58.558Z,7.18
2022-08-17T02:42:40.772Z,10.40
2022-08-17T02:45:23.446Z,6.93
2022-08-17T02:47:52.298Z,6.78
2022-08-17T02:50:24.188Z,7.55
2022-08-17T02:53:02.544Z,7.97
2022-08-17T02:55:38.013Z,7.53
2022-08-17T02:58:06.079Z,8.93
2022-08-17T03:00:47.850Z,7.88
2022-08-17T03:03:20.373Z,7.57
2022-08-17T03:05:53.491Z,9.93
2022-08-17T03:08:21.315Z,7.80
2022-08-17T03:10:50.190Z,7.68
2022-08-17T03:13:17.778Z,8.90
2022-08-17T03:15:47.329Z,8.57
2022-08-17T03:18:25.051Z,6.85
2022-08-17T03:20:58.681Z,8.23
2022-08-17T03:23:29.627Z,8.93
2022-08-17T03:25:58.769Z,9.05
2022-08-17T03:28:28.212Z,9.93
2022-08-17T03:30:55.495Z,8.65
2022-08-17T03:33:23.080Z,9.93
2022-08-17T03:35:50.842Z,9.07
2022-08-17T03:38:18.708Z,11.38
2022-08-17T03:40:57.975Z,10.40
2022-08-17T03:43:31.722Z,8.90
2022-08-17T03:46:34.315Z,10.45
2022-08-17T03:49:26.342Z,11.48
2022-08-17T03:52:15.333Z,11.07
2022-08-17T03:55:03.812Z,9.02
2022-08-17T03:57:32.476Z,10.57
2022-08-17T03:59:59.906Z,12.70
2022-08-17T04:02:33.198Z,10.07
2022-08-17T04:05:01.154Z,9.32
2022-08-17T04:07:31.827Z,10.07
2022-08-17T04:09:59.804Z,10.70
2022-08-17T04:12:31.611Z,10.55
2022-08-17T04:15:03.813Z,10.02
2022-08-17T04:17:30.981Z,9.27
2022-08-17T04:19:58.333Z,11.00
2022-08-17T04:22:30.996Z,10.05
2022-08-17T04:25:18.532Z,9.50
2022-08-17T04:27:45.772Z,8.95
2022-08-17T04:30:13.614Z,12.68
2022-08-17T04:33:20.115Z,10.70
2022-08-17T04:35:54.547Z,10.77
2022-08-17T04:38:27.134Z,10.07
2022-08-17T04:41:15.859Z,9.98
2022-08-17T04:43:46.650Z,9.98
2022-08-17T04:46:19.518Z,10.32
2022-08-17T04:48:52.544Z,9.95
2022-08-17T04:51:35.389Z,12.93
2022-08-17T04:54:10.538Z,10.07
2022-08-17T04:56:39.446Z,13.65
2022-08-17T04:59:21.095Z,14.18
2022-08-17T05:01:51.678Z,13.13
2022-08-17T05:04:35.131Z,12.75
2022-08-17T05:07:04.461Z,10.10
2022-08-17T05:09:32.445Z,10.43
2022-08-17T05:12:05.935Z,10.32
2022-08-17T05:14:33.952Z,10.82
2022-08-17T05:17:09.439Z,11.65
2022-08-17T05:19:38.659Z,11.25
2022-08-17T05:22:06.426Z,13.20
2022-08-17T05:24:42.716Z,9.63
2022-08-17T05:27:21.302Z,12.40
2022-08-17T05:29:51.070Z,9.75
2022-08-17T05:32:39.407Z,12.20
2022-08-17T05:35:08.494Z,11.45
2022-08-17T05:37:35.699Z,10.32
2022-08-17T05:40:03.700Z,12.30
2022-08-17T05:42:31.169Z,10.80
2022-08-17T05:44:58.840Z,8.60
2022-08-17T05:47:27.663Z,8.20
2022-08-17T05:49:55.513Z,12.48
2022-08-17T05:53:22.079Z,6.65
2022-08-17T05:56:41.078Z,7.38
2022-08-17T05:59:19.916Z,6.60
2022-08-17T06:02:11.655Z,8.48
2022-08-17T06:05:17.177Z,8.60
2022-08-17T06:08:24.989Z,8.68
2022-08-17T06:11:10.780Z,9.25
2022-08-17T06:14:22.703Z,7.93
2022-08-17T06:17:00.981Z,6.13
2022-08-17T06:19:44.559Z,7.28
2022-08-17T06:22:18.745Z,6.50
2022-08-17T06:25:01.233Z,7.97
2022-08-17T06:27:53.627Z,9.95
2022-08-17T06:30:36.720Z,10.32
2022-08-17T06:33:34.279Z,9.00
2022-08-17T06:36:18.621Z,8.50
2022-08-17T06:39:31.852Z,7.78
2022-08-17T06:43:02.597Z,9.30
2022-08-17T06:45:43.971Z,6.93
2022-08-17T06:48:31.595Z,6.22
2022-08-17T06:51:22.957Z,5.95
2022-08-17T06:54:07.125Z,5.00
2022-08-17T06:57:16.645Z,7.30
2022-08-17T07:00:00.618Z,6.70
2022-08-17T07:02:54.294Z,8.13
2022-08-17T07:06:27.598Z,11.05
2022-08-17T07:09:13.897Z,6.20
2022-08-17T07:12:03.281Z,7.45
2022-08-17T07:14:36.686Z,11.00
2022-08-17T07:17:46.793Z,8.98
2022-08-17T07:20:22.710Z,7.50
2022-08-17T07:23:19.077Z,7.95
2022-08-17T07:25:46.692Z,7.88
2022-08-17T07:28:22.901Z,9.63
2022-08-17T07:30:55.059Z,7.35
2022-08-17T07:33:28.527Z,6.25
2022-08-17T07:35:58.210Z,12.80
2022-08-17T07:38:35.439Z,10.45
2022-08-17T07:41:10.616Z,6.32
2022-08-17T07:43:41.181Z,6.32
2022-08-17T07:46:30.001Z,6.22
2022-08-17T07:49:08.792Z,6.40
2022-08-17T07:51:44.080Z,8.10
2022-08-17T07:54:22.526Z,7.95
2022-08-17T07:57:32.234Z,7.50
2022-08-17T08:00:15.310Z,7.82
2022-08-17T08:03:00.126Z,6.20
2022-08-17T08:05:50.266Z,7.43
2022-08-17T08:08:42.268Z,6.80
2022-08-17T08:11:15.515Z,9.77
2022-08-17T08:13:45.652Z,8.15
2022-08-17T08:16:33.471Z,8.38
2022-08-17T08:19:02.715Z,9.65
2022-08-17T08:21:48.417Z,7.25
2022-08-17T08:24:43.015Z,7.35
2022-08-17T08:27:22.276Z,5.68
2022-08-17T08:30:21.544Z,10.25
2022-08-17T08:33:39.873Z,8.38
2022-08-17T08:37:20.628Z,7.68
2022-08-17T08:40:40.823Z,8.38
2022-08-17T08:44:02.572Z,9.65
2022-08-17T08:47:00.839Z,10.82
2022-08-17T08:50:04.867Z,12.38
2022-08-17T08:53:15.970Z,8.95
2022-08-17T08:56:06.294Z,10.65
2022-08-17T08:59:25.492Z,9.10
2022-08-17T09:02:17.149Z,14.57
2022-08-17T09:05:14.219Z,8.60
2022-08-17T09:07:46.509Z,10.93
2022-08-17T09:10:34.903Z,7.55
2022-08-17T09:13:54.639Z,8.27
2022-08-17T09:17:19.172Z,7.15
2022-08-17T09:20:27.380Z,10.73
2022-08-17T09:23:15.261Z,8.50
2022-08-17T09:26:41.646Z,8.40
2022-08-17T09:29:18.028Z,9.38
2022-08-17T09:31:59.653Z,7.82
2022-08-17T09:35:14.429Z,10.32
2022-08-17T09:37:59.155Z,8.55
2022-08-17T09:40:49.314Z,9.95
2022-08-17T09:43:48.184Z,11.77
2022-08-17T09:46:34.566Z,7.85
2022-08-17T09:49:36.203Z,10.88
2022-08-17T09:52:27.432Z,13.05
2022-08-17T09:54:58.119Z,13.73
2022-08-17T09:57:43.652Z,9.68
2022-08-17T10:00:31.627Z,9.18
2022-08-17T10:03:39.063Z,8.13
2022-08-17T10:06:30.375Z,9.27
2022-08-17T10:09:15.572Z,8.95
2022-08-17T10:12:17.472Z,9.32
2022-08-17T10:15:59.125Z,9.43
2022-08-17T10:19:22.963Z,15.13
2022-08-17T10:22:34.600Z,8.63
2022-08-17T10:25:30.199Z,7.25
2022-08-17T10:29:25.428Z,11.73
2022-08-17T10:33:15.450Z,9.40
2022-08-17T10:36:58.449Z,9.30
2022-08-17T10:40:42.645Z,8.13
2022-08-17T10:43:44.746Z,7.80
2022-08-17T10:47:11.734Z,7.90
2022-08-17T10:49:47.808Z,7.18
2022-08-17T10:53:30.781Z,8.32
2022-08-17T10:57:13.055Z,7.53
2022-08-17T10:59:41.901Z,9.10
2022-08-17T11:02:43.856Z,8.32
2022-08-17T11:06:26.492Z,10.18
2022-08-17T11:10:09.057Z,8.88
2022-08-17T11:13:53.421Z,11.45
2022-08-17T11:17:36.321Z,13.35
2022-08-17T11:20:25.024Z,8.27
2022-08-17T11:23:19.667Z,8.10
2022-08-17T11:25:58.541Z,8.90
2022-08-17T11:28:34.582Z,8.88
2022-08-17T11:31:37.940Z,8.10
2022-08-17T11:34:21.298Z,5.80
2022-08-17T11:37:28.875Z,6.40
2022-08-17T11:40:14.889Z,6.68
2022-08-17T11:43:25.326Z,6.38
2022-08-17T11:46:16.979Z,6.70
2022-08-17T11:49:12.121Z,4.35
2022-08-17T11:52:01.463Z,5.32
2022-08-17T11:54:47.334Z,6.10
2022-08-17T11:57:26.681Z,5.25
2022-08-17T12:00:08.640Z,4.88
2022-08-17T12:02:47.419Z,5.97
2022-08-17T12:05:16.887Z,5.50
2022-08-17T12:08:06.164Z,4.43
2022-08-17T12:10:48.016Z,4.85
2022-08-17T12:13:19.118Z,6.82
2022-08-17T12:15:52.782Z,8.13
2022-08-17T12:18:28.473Z,3.58
2022-08-17T12:21:16.641Z,4.38
2022-08-17T12:24:22.841Z,4.55
2022-08-17T12:26:59.766Z,4.05
2022-08-17T12:29:38.392Z,5.15
2022-08-17T12:32:18.260Z,6.15
2022-08-17T12:34:49.445Z,5.63
2022-08-17T12:37:21.871Z,5.85
2022-08-17T12:40:24.306Z,5.55
2022-08-17T12:43:07.648Z,6.18
2022-08-17T12:45:39.810Z,5.72
2022-08-17T12:48:26.915Z,7.72
2022-08-17T12:51:03.737Z,5.70
2022-08-17T12:53:36.872Z,4.90
2022-08-17T12:56:13.314Z,4.88
2022-08-17T12:58:54.039Z,5.18
2022-08-17T13:01:23.338Z,4.55
2022-08-17T13:03:59.732Z,4.57
2022-08-17T13:06:36.557Z,5.78
2022-08-17T13:09:35.949Z,3.78
2022-08-17T13:12:08.648Z,4.40
2022-08-17T13:14:36.193Z,4.00
2022-08-17T13:17:11.114Z,4.72
2022-08-17T13:19:49.859Z,4.88
2022-08-17T13:22:24.029Z,5.10
2022-08-17T13:25:07.018Z,6.38
2022-08-17T13:27:34.725Z,5.15
2022-08-17T13:30:12.201Z,4.57
2022-08-17T13:32:48.595Z,5.07
2022-08-17T13:39:25.366Z,5.28
2022-08-17T13:41:56.026Z,4.50
2022-08-17T13:44:40.407Z,5.32
2022-08-17T13:47:21.129Z,5.55
2022-08-17T13:49:49.579Z,5.78
2022-08-17T13:52:43.479Z,4.40
2022-08-17T13:55:22.201Z,5.03
2022-08-17T13:58:04.205Z,4.72
2022-08-17T14:00:36.831Z,6.20
2022-08-17T14:03:05.931Z,5.28
2022-08-17T14:05:33.895Z,5.20
2022-08-17T14:08:06.933Z,5.07
2022-08-17T14:10:36.911Z,5.50
2022-08-17T14:13:06.546Z,4.88
2022-08-17T14:15:54.003Z,5.28
2022-08-17T14:18:53.491Z,5.10
2022-08-17T14:21:10.876Z,5.32
2022-08-17T14:23:38.419Z,5.07
2022-08-17T14:26:06.276Z,6.80
2022-08-17T14:28:33.588Z,6.05
2022-08-17T14:31:03.693Z,6.10
2022-08-17T14:33:31.037Z,5.13
2022-08-17T14:35:58.640Z,5.18
2022-08-17T14:38:26.245Z,4.82
2022-08-17T14:40:54.132Z,5.18
2022-08-17T14:43:21.428Z,4.60
2022-08-17T14:45:48.667Z,9.60
2022-08-17T14:48:16.223Z,5.75
2022-08-17T14:50:44.204Z,7.22
2022-08-17T14:53:16.059Z,7.95
2022-08-17T14:55:45.762Z,5.70
2022-08-17T14:58:14.589Z,6.05
2022-08-17T15:00:43.586Z,5.60
2022-08-17T15:03:11.737Z,6.30
2022-08-17T15:05:39.929Z,5.00
2022-08-17T15:08:07.979Z,6.20
2022-08-17T15:10:40.239Z,6.82
2022-08-17T15:13:23.485Z,7.60
2022-08-17T15:15:52.312Z,5.50
2022-08-17T15:18:20.064Z,4.72
2022-08-17T15:20:50.031Z,5.22
2022-08-17T15:23:22.124Z,5.45
2022-08-17T15:25:53.251Z,6.35
2022-08-17T15:28:25.015Z,5.55
2022-08-17T15:30:54.179Z,6.55
2022-08-17T15:33:29.447Z,4.47
2022-08-17T15:36:02.114Z,6.35
2022-08-17T15:38:35.210Z,6.85
2022-08-17T15:41:02.719Z,7.25
2022-08-17T15:43:32.629Z,6.45
2022-08-17T15:46:18.800Z,5.32
2022-08-17T15:48:50.931Z,6.35
2022-08-17T15:51:24.185Z,6.53
2022-08-17T15:54:04.557Z,5.18
2022-08-17T15:57:04.521Z,5.80
2022-08-17T15:59:31.762Z,5.93
2022-08-17T16:03:15.925Z,7.50
2022-08-17T16:04:48.936Z,5.68
2022-08-17T16:07:26.783Z,8.40
2022-08-17T16:09:54.599Z,5.18
2022-08-17T16:12:22.314Z,7.93
2022-08-17T16:14:53.277Z,17.45
2022-08-17T16:17:38.953Z,10.77
2022-08-17T16:20:20.262Z,6.75
2022-08-17T16:22:50.876Z,6.90
2022-08-17T16:25:50.414Z,7.90
2022-08-17T16:28:16.235Z,7.53
2022-08-17T16:30:44.412Z,6.00
2022-08-17T16:33:13.508Z,6.25
2022-08-17T16:35:41.927Z,7.60
2022-08-17T16:38:10.969Z,12.13
2022-08-17T16:40:39.007Z,7.10
2022-08-17T16:43:10.534Z,11.85
2022-08-17T16:45:40.304Z,7.53
2022-08-17T16:48:10.122Z,9.90
2022-08-17T16:50:38.003Z,10.65
2022-08-17T16:53:17.749Z,7.88
2022-08-17T16:55:48.581Z,7.88
2022-08-17T16:58:16.244Z,8.85
2022-08-17T17:00:45.871Z,8.18
2022-08-17T17:03:27.756Z,7.80
2022-08-17T17:06:31.428Z,6.95
2022-08-17T17:09:07.806Z,9.65
2022-08-17T17:11:52.860Z,9.43
2022-08-17T17:14:43.708Z,7.38
2022-08-17T17:17:36.464Z,8.32
2022-08-17T17:20:25.958Z,5.30
2022-08-17T17:23:11.319Z,8.35
2022-08-17T17:26:48.538Z,8.68
2022-08-17T17:30:02.336Z,8.27
2022-08-17T17:33:48.072Z,6.57
2022-08-17T17:36:41.263Z,5.85
2022-08-17T17:40:24.357Z,4.68
2022-08-17T17:43:05.424Z,7.18
2022-08-17T17:45:54.175Z,7.93
2022-08-17T17:49:37.126Z,6.95
2022-08-17T17:53:19.934Z,7.65
2022-08-17T17:56:40.269Z,7.50
2022-08-17T18:00:27.407Z,8.65
2022-08-17T18:04:16.974Z,7.10
2022-08-17T18:08:10.843Z,8.35
2022-08-17T18:11:24.231Z,9.10
2022-08-17T18:14:26.872Z,5.60
2022-08-17T18:18:09.651Z,5.82
2022-08-17T18:20:54.024Z,6.75
2022-08-17T18:23:27.892Z,6.65
2022-08-17T18:27:11.269Z,8.05
2022-08-17T18:30:54.020Z,8.10
2022-08-17T18:34:48.320Z,6.95
2022-08-17T18:37:38.352Z,8.48
2022-08-17T18:40:37.540Z,8.32
2022-08-17T18:43:24.430Z,7.80
2022-08-17T18:47:07.410Z,9.38
2022-08-17T18:50:51.367Z,8.13
2022-08-17T18:54:37.556Z,9.98
2022-08-17T18:57:07.715Z,8.68
2022-08-17T18:59:49.511Z,7.45
2022-08-17T19:03:32.292Z,6.47
2022-08-17T19:07:14.819Z,7.32
2022-08-17T19:10:57.313Z,9.90
2022-08-17T19:14:39.843Z,7.28
2022-08-17T19:17:48.556Z,9.15
2022-08-17T19:20:38.067Z,8.07
2022-08-17T19:24:20.477Z,10.48
2022-08-17T19:27:16.680Z,7.30
2022-08-17T19:30:08.538Z,7.57
2022-08-17T19:32:36.473Z,8.27
2022-08-17T19:35:11.416Z,7.32
2022-08-17T19:38:13.427Z,9.50
2022-08-17T19:41:20.388Z,6.75
2022-08-17T19:44:32.142Z,7.93
2022-08-17T19:47:53.232Z,8.57
2022-08-17T19:51:08.210Z,6.80
2022-08-17T19:54:06.442Z,9.13
2022-08-17T19:57:02.912Z,9.88
2022-08-17T20:00:11.495Z,6.53
2022-08-17T20:03:06.309Z,6.93
2022-08-17T20:06:10.838Z,7.30
2022-08-17T20:08:43.313Z,7.15
2022-08-17T20:11:31.712Z,7.25
2022-08-17T20:14:20.029Z,7.47
2022-08-17T20:16:48.171Z,6.65
2022-08-17T20:19:57.389Z,8.15
2022-08-17T20:22:49.357Z,6.60
2022-08-17T20:25:45.413Z,7.18
2022-08-17T20:29:13.870Z,5.63
2022-08-17T20:31:56.441Z,8.43
2022-08-17T20:34:30.830Z,8.13
2022-08-17T20:37:31.228Z,6.28
2022-08-17T20:39:58.401Z,7.85
2022-08-17T20:42:27.228Z,7.50
2022-08-17T20:45:20.671Z,7.50
2022-08-17T20:48:33.338Z,6.80
2022-08-17T20:51:00.601Z,7.70
2022-08-17T20:54:06.825Z,8.25
2022-08-17T20:56:44.259Z,7.13
2022-08-17T20:59:27.512Z,7.57
2022-08-17T21:02:18.139Z,6.63
2022-08-17T21:05:23.337Z,7.57
2022-08-17T21:08:16.685Z,7.97
2022-08-17T21:10:47.038Z,9.02
2022-08-17T21:13:15.721Z,8.77
2022-08-17T21:16:21.235Z,8.15
2022-08-17T21:20:13.281Z,10.20
2022-08-17T21:22:59.005Z,9.02
2022-08-17T21:26:50.705Z,8.30
2022-08-17T21:29:31.912Z,9.63
2022-08-17T21:32:03.092Z,9.50
2022-08-17T21:35:02.234Z,8.02
2022-08-17T21:38:45.448Z,11.15
2022-08-17T21:41:57.962Z,9.15
2022-08-17T21:45:41.182Z,9.70
2022-08-17T21:49:23.572Z,8.48
2022-08-17T21:53:08.732Z,9.40
2022-08-17T21:56:51.763Z,9.55
2022-08-17T22:00:34.300Z,12.77
2022-08-17T22:03:24.610Z,7.40
2022-08-17T22:07:07.211Z,11.02
2022-08-17T22:10:51.187Z,10.98
2022-08-17T22:14:53.370Z,12.30
2022-08-17T22:18:36.815Z,7.03
2022-08-17T22:21:06.073Z,7.88
2022-08-17T22:24:06.589Z,9.82
2022-08-17T22:27:11.538Z,7.38
2022-08-17T22:29:59.365Z,6.47
2022-08-17T22:32:43.761Z,8.00
2022-08-17T22:35:29.170Z,6.18
2022-08-17T22:37:58.946Z,7.18
2022-08-17T22:40:34.420Z,8.50
2022-08-17T22:43:03.464Z,8.63
2022-08-17T22:45:31.134Z,7.90
2022-08-17T22:48:01.982Z,7.97
2022-08-17T22:50:33.012Z,8.57
2022-08-17T22:53:35.620Z,10.23
2022-08-17T22:56:22.880Z,7.72
2022-08-17T22:59:17.458Z,9.23
2022-08-17T23:02:23.283Z,9.95
2022-08-17T23:05:11.070Z,9.38
2022-08-17T23:07:39.735Z,11.13
2022-08-17T23:10:12.495Z,10.68
2022-08-17T23:12:40.794Z,11.57
2022-08-17T23:15:17.800Z,17.73
2022-08-17T23:17:45.896Z,14.43
2022-08-17T23:20:17.415Z,14.52
2022-08-17T23:22:52.816Z,13.50
2022-08-17T23:25:33.540Z,13.55
2022-08-17T23:28:07.274Z,15.07
2022-08-17T23:30:42.533Z,13.88
2022-08-17T23:33:31.172Z,13.20
2022-08-17T23:36:01.449Z,14.05
2022-08-17T23:38:28.889Z,16.98
2022-08-17T23:41:04.389Z,14.88
2022-08-17T23:43:31.849Z,16.98
2022-08-17T23:46:00.773Z,15.63
2022-08-17T23:48:34.931Z,17.33
2022-08-17T23:51:14.004Z,17.20
2022-08-17T23:53:47.897Z,14.00
2022-08-17T23:56:18.244Z,15.15
2022-08-17T23:58:45.471Z,20.70
